createdAt,value
2023-07-10T00:02:55.569Z,8.8
2023-07-10T00:07:55.343Z,8.1
2023-07-10T00:12:55.424Z,9.5
2023-07-10T00:17:55.349Z,9.5
2023-07-10T00:22:55.429Z,14.0
2023-07-10T00:27:55.318Z,11.1
2023-07-10T00:32:55.543Z,10.6
2023-07-10T00:37:55.308Z,6.9
2023-07-10T00:42:55.475Z,8.8
2023-07-10T00:47:55.362Z,8.8
2023-07-10T00:52:55.477Z,5.7
2023-07-10T00:57:55.337Z,7.1
2023-07-10T01:02:55.618Z,6.3
2023-07-10T01:07:55.393Z,8.7
2023-07-10T01:12:55.450Z,10.4
2023-07-10T01:17:55.390Z,10.4
2023-07-10T01:22:55.447Z,10.0
2023-07-10T01:27:55.290Z,8.9
2023-07-10T01:32:55.529Z,16.1
2023-07-10T01:37:55.346Z,14.1
2023-07-10T01:42:55.475Z,15.3
2023-07-10T01:47:55.434Z,15.3
2023-07-10T01:52:55.485Z,14.6
2023-07-10T01:57:55.342Z,9.6
2023-07-10T02:02:55.565Z,12.6
2023-07-10T02:07:55.364Z,8.1
2023-07-10T02:12:55.472Z,9.2
2023-07-10T02:17:55.399Z,9.2
2023-07-10T02:22:55.455Z,8.5
2023-07-10T02:27:55.345Z,12.3
2023-07-10T02:32:55.509Z,16.8
2023-07-10T02:37:55.358Z,11.2
2023-07-10T02:42:55.559Z,4.5
2023-07-10T02:47:55.390Z,4.5
2023-07-10T02:52:55.483Z,5.5
2023-07-10T02:57:55.415Z,9.5
2023-07-10T03:02:55.561Z,12.5
2023-07-10T03:07:55.393Z,9.5
2023-07-10T03:12:55.490Z,13.5
2023-07-10T03:17:55.421Z,13.5
2023-07-10T03:22:55.526Z,10.7
2023-07-10T03:27:55.381Z,18.2
2023-07-10T03:32:55.553Z,9.3
2023-07-10T03:37:55.375Z,8.1
2023-07-10T03:42:55.505Z,16.7
2023-07-10T03:47:55.385Z,16.7
2023-07-10T03:52:55.518Z,11.0
2023-07-10T03:57:55.370Z,11.2
2023-07-10T04:02:55.609Z,9.6
2023-07-10T04:07:55.367Z,8.6
2023-07-10T04:12:55.498Z,15.4
2023-07-10T04:17:55.404Z,15.4
2023-07-10T04:22:55.503Z,13.2
2023-07-10T04:27:55.366Z,8.5
2023-07-10T04:32:55.524Z,12.0
2023-07-10T04:37:55.375Z,12.3
2023-07-10T04:42:55.506Z,8.6
2023-07-10T04:47:55.415Z,8.6
2023-07-10T04:52:55.518Z,12.4
2023-07-10T04:57:55.388Z,21.4
2023-07-10T05:02:55.557Z,13.7
2023-07-10T05:07:55.379Z,11.0
2023-07-10T05:12:55.510Z,10.5
2023-07-10T05:17:55.460Z,10.5
2023-07-10T05:22:55.476Z,12.4
2023-07-10T05:27:55.383Z,13.4
2023-07-10T05:32:55.596Z,12.7
2023-07-10T05:37:55.398Z,10.3
2023-07-10T05:42:55.479Z,12.7
2023-07-10T05:47:55.471Z,12.7
2023-07-10T05:52:55.505Z,12.1
2023-07-10T05:57:55.388Z,21.0
2023-07-10T06:02:55.526Z,22.1
2023-07-10T06:07:55.364Z,9.0
2023-07-10T06:12:55.521Z,15.9
2023-07-10T06:17:55.438Z,15.9
2023-07-10T06:22:55.514Z,12.1
2023-07-10T06:27:55.369Z,10.6
2023-07-10T06:32:55.561Z,15.6
2023-07-10T06:37:55.416Z,8.5
2023-07-10T06:42:55.484Z,11.2
2023-07-10T06:47:55.431Z,11.2
2023-07-10T06:52:55.488Z,11.7
2023-07-10T06:57:55.406Z,12.7
2023-07-10T07:02:55.614Z,10.7
2023-07-10T07:07:55.412Z,12.4
2023-07-10T07:12:55.581Z,10.6
2023-07-10T07:17:55.454Z,10.6
2023-07-10T07:22:55.490Z,9.7
2023-07-10T07:27:55.406Z,8.7
2023-07-10T07:32:55.547Z,5.4
2023-07-10T07:37:55.396Z,12.2
2023-07-10T07:42:55.559Z,10.9
2023-07-10T07:52:55.494Z,8.7
2023-07-10T07:57:55.375Z,9.4
2023-07-10T08:02:55.620Z,14.6
2023-07-10T08:07:55.395Z,15.4
2023-07-10T08:12:55.500Z,10.4
2023-07-10T08:22:55.539Z,4.6
2023-07-10T08:27:55.401Z,7.6
2023-07-10T08:32:55.625Z,7.9
2023-07-10T08:42:55.529Z,7.4
2023-07-10T08:47:55.456Z,7.4
2023-07-10T08:52:55.490Z,7.2
2023-07-10T08:57:55.388Z,12.4
2023-07-10T09:02:55.566Z,8.4
2023-07-10T09:12:55.493Z,6.2
2023-07-10T09:17:55.486Z,6.2
2023-07-10T09:22:55.532Z,6.8
2023-07-10T09:27:55.449Z,5.6
2023-07-10T09:32:55.570Z,7.9
2023-07-10T09:42:55.533Z,7.1
2023-07-10T09:47:55.440Z,7.1
2023-07-10T09:52:55.496Z,8.9
2023-07-10T09:57:55.435Z,5.3
2023-07-10T10:02:55.628Z,4.9
2023-07-10T10:07:55.390Z,4.8
2023-07-10T10:12:55.393Z,4.5
2023-07-10T10:17:55.416Z,4.5
2023-07-10T10:22:55.499Z,6.7
2023-07-10T10:27:55.412Z,5.5
2023-07-10T10:32:55.587Z,4.6
2023-07-10T10:37:55.422Z,5.0
2023-07-10T10:42:55.496Z,9.2
2023-07-10T10:47:55.449Z,9.2
2023-07-10T10:52:55.503Z,3.9
2023-07-10T10:57:55.420Z,9.7
2023-07-10T11:02:55.529Z,3.3
2023-07-10T11:07:55.405Z,8.3
2023-07-10T11:12:55.496Z,5.0
2023-07-10T11:17:55.441Z,5.0
2023-07-10T11:22:55.499Z,4.9
2023-07-10T11:27:55.386Z,4.6
2023-07-10T11:32:55.567Z,6.3
2023-07-10T11:37:55.415Z,4.3
2023-07-10T11:42:55.532Z,4.2
2023-07-10T11:47:55.419Z,4.2
2023-07-10T11:52:55.532Z,4.7
2023-07-10T11:57:55.392Z,6.7
2023-07-10T12:02:55.751Z,4.7
2023-07-10T12:07:56.867Z,5.4
2023-07-10T12:12:55.618Z,5.4
2023-07-10T12:17:55.454Z,3.5
2023-07-10T12:22:55.532Z,3.5
2023-07-10T12:32:55.568Z,5.0
2023-07-10T12:37:55.388Z,3.8
2023-07-10T12:42:55.522Z,3.8
2023-07-10T12:47:58.630Z,4.3
2023-07-10T12:52:55.413Z,6.8
2023-07-10T12:57:55.379Z,6.6
2023-07-10T13:02:55.680Z,3.9
2023-07-10T13:07:55.409Z,9.3
2023-07-10T13:12:55.631Z,9.3
2023-07-10T13:17:55.483Z,6.8
2023-07-10T13:22:55.528Z,4.5
2023-07-10T13:27:55.384Z,5.1
2023-07-10T13:32:55.489Z,6.9
2023-07-10T13:37:55.387Z,6.5
2023-07-10T13:42:55.420Z,6.5
2023-07-10T13:47:55.452Z,5.2
2023-07-10T13:52:55.527Z,7.1
2023-07-10T13:57:55.380Z,4.5
2023-07-10T14:02:55.487Z,4.8
2023-07-10T14:07:55.440Z,4.4
2023-07-10T14:12:55.634Z,4.4
2023-07-10T14:17:55.421Z,2.2
2023-07-10T14:22:55.582Z,3.0
2023-07-10T14:27:55.500Z,4.6
2023-07-10T14:32:55.578Z,7.3
2023-07-10T14:37:55.469Z,2.7
2023-07-10T14:42:55.449Z,2.7
2023-07-10T14:47:55.451Z,6.2
2023-07-10T14:52:55.461Z,2.8
2023-07-10T14:57:55.425Z,4.4
2023-07-10T15:02:55.491Z,5.6
2023-07-10T15:07:55.407Z,3.3
2023-07-10T15:12:55.530Z,3.3
2023-07-10T15:17:55.503Z,3.8
2023-07-10T15:22:55.563Z,5.4
2023-07-10T15:27:55.384Z,5.2
2023-07-10T15:32:55.605Z,4.3
2023-07-10T15:37:55.380Z,5.5
2023-07-10T15:42:55.662Z,5.5
2023-07-10T15:47:57.430Z,4.9
2023-07-10T15:52:55.560Z,6.7
2023-07-10T15:57:55.446Z,5.2
2023-07-10T16:02:55.824Z,7.0
2023-07-10T16:07:55.443Z,5.2
2023-07-10T16:12:55.552Z,5.2
2023-07-10T16:17:55.597Z,6.0
2023-07-10T16:22:55.560Z,7.9
2023-07-10T16:27:55.437Z,5.8
2023-07-10T16:32:55.662Z,4.7
2023-07-10T16:37:55.434Z,6.9
2023-07-10T16:42:55.634Z,6.9
2023-07-10T16:47:55.636Z,3.4
2023-07-10T16:52:55.598Z,4.1
2023-07-10T16:57:55.484Z,5.1
2023-07-10T17:02:55.645Z,4.3
2023-07-10T17:07:55.459Z,3.9
2023-07-10T17:12:55.562Z,3.9
2023-07-10T17:17:55.465Z,3.1
2023-07-10T17:22:55.545Z,5.1
2023-07-10T17:27:55.458Z,3.9
2023-07-10T17:32:55.633Z,4.9
2023-07-10T17:37:55.447Z,7.6
2023-07-10T17:42:55.594Z,7.6
2023-07-10T17:47:55.509Z,3.3
2023-07-10T17:52:55.559Z,4.7
2023-07-10T17:57:55.429Z,5.4
2023-07-10T18:02:55.661Z,6.6
2023-07-10T18:07:55.452Z,7.9
2023-07-10T18:12:55.596Z,7.9
2023-07-10T18:17:55.493Z,4.9
2023-07-10T18:22:55.556Z,8.0
2023-07-10T18:27:55.491Z,5.1
2023-07-10T18:32:55.696Z,6.8
2023-07-10T18:37:55.460Z,4.1
2023-07-10T18:42:55.591Z,4.1
2023-07-10T18:47:55.454Z,11.4
2023-07-10T18:52:55.642Z,5.4
2023-07-10T18:57:55.484Z,6.0
2023-07-10T19:02:55.810Z,4.6
2023-07-10T19:07:55.530Z,5.6
2023-07-10T19:12:55.746Z,5.6
2023-07-10T19:17:55.644Z,4.1
2023-07-10T19:22:55.695Z,4.0
2023-07-10T19:27:55.559Z,2.9
2023-07-10T19:32:55.695Z,3.8
2023-07-10T19:37:55.597Z,5.7
2023-07-10T19:42:55.701Z,5.7
2023-07-10T19:47:55.641Z,5.5
2023-07-10T19:52:55.661Z,5.6
2023-07-10T19:57:55.569Z,5.2
2023-07-10T20:02:55.839Z,3.7
2023-07-10T20:07:55.581Z,6.3
2023-07-10T20:12:55.697Z,6.3
2023-07-10T20:17:55.633Z,6.4
2023-07-10T20:22:55.667Z,8.5
2023-07-10T20:27:55.591Z,4.0
2023-07-10T20:32:55.744Z,6.0
2023-07-10T20:37:55.548Z,3.8
2023-07-10T20:42:55.676Z,3.8
2023-07-10T20:47:55.610Z,6.2
2023-07-10T20:52:55.705Z,4.1
2023-07-10T20:57:55.605Z,5.0
2023-07-10T21:02:55.830Z,4.9
2023-07-10T21:07:55.577Z,5.4
2023-07-10T21:12:55.729Z,5.4
2023-07-10T21:17:55.680Z,5.7
2023-07-10T21:22:55.697Z,4.8
2023-07-10T21:27:55.601Z,4.9
2023-07-10T21:32:55.728Z,6.4
2023-07-10T21:37:55.594Z,3.7
2023-07-10T21:42:55.729Z,3.7
2023-07-10T21:47:55.657Z,4.7
2023-07-10T21:52:55.716Z,6.9
2023-07-10T21:57:55.594Z,7.1
2023-07-10T22:02:55.792Z,6.1
2023-07-10T22:07:55.585Z,5.3
2023-07-10T22:12:55.692Z,5.3
2023-07-10T22:17:55.682Z,4.5
2023-07-10T22:22:55.744Z,6.6
2023-07-10T22:27:55.600Z,7.6
2023-07-10T22:32:55.703Z,6.1
2023-07-10T22:37:55.603Z,13.2
2023-07-10T22:42:55.734Z,13.2
2023-07-10T22:47:55.646Z,6.9
2023-07-10T22:52:58.093Z,6.7
2023-07-10T22:57:55.648Z,9.9
2023-07-10T23:02:55.795Z,8.9
2023-07-10T23:07:55.595Z,8.0
2023-07-10T23:12:55.594Z,8.0
2023-07-10T23:17:55.663Z,8.1
2023-07-10T23:22:55.687Z,6.6
2023-07-10T23:27:55.609Z,5.9
2023-07-10T23:32:55.695Z,7.6
2023-07-10T23:37:55.613Z,6.0
2023-07-10T23:42:55.728Z,6.0
2023-07-10T23:47:55.625Z,8.2
2023-07-10T23:52:55.676Z,6.9
2023-07-10T23:57:55.613Z,9.1
